• Join FlightAware (Why Join?)
  • Login
  • US Flag 
02:57AM EDT


 

Airport Tracker/Info


-or-


 

Live Flight TrackerFlight Track Log ✈ EJA328 ✈ 22.03.2014 ✈ KGJT - KSMO

Flight Track Log - Related Links

Times and Time Zones

All times are in EDT time to prevent confusion due to time zone crossing. See the EJA328 flight status page for this flight to view local times or setup timezone preferences in your user account.

Time Position Orientation Groundspeed Altitude Reporting Facility
EDT Latitude Longitude Course Direction KTS MPH feet Rate Location/Type
06:55PM 39.0300 -108.4894 211° Southwest 261 300 10,700  Level FlightAware ADS-B (KMTJ)
06:55PM 39.0200 -108.5001 229° Southwest 265 305 11,100 2,700 Climbing FlightAware ADS-B (KMTJ)
06:55PM 39.0134 -108.5143 246° West 270 311 11,600 3,180 Climbing FlightAware ADS-B (KMTJ)
06:56PM 39.0012 -108.5601 252° West 271 312 13,300 3,000 Climbing FlightAware ADS-B (KMTJ)
06:56PM 38.9867 -108.6171 252° West 292 336 15,000 2,820 Climbing FlightAware ADS-B (KMTJ)
06:57PM 38.9691 -108.6844 251° West 310 357 16,900 3,120 Climbing FlightAware ADS-B (KMTJ)
06:58PM 38.9539 -108.7416 251° West 304 350 18,800 4,140 Climbing FlightAware ADS-B (KMTJ)
06:58PM 38.9406 -108.7917 251° West 282 325 21,300 3,300 Climbing FlightAware ADS-B
06:59PM 38.9241 -108.8545 251° West 302 348 22,700 1,620 Climbing FlightAware ADS-B (KMTJ)
06:59PM 38.9052 -108.9257 251° West 327 376 23,500 1,320 Climbing FlightAware ADS-B (KMTJ)
07:00PM 38.8825 -109.0109 251° West 346 398 24,600 1,440 Climbing FlightAware ADS-B (KMTJ)
07:01PM 38.8668 -109.0696 251° West 354 407 25,300 1,380 Climbing FlightAware ADS-B (KMTJ)
07:01PM 38.8484 -109.1382 251° West 361 415 26,100 1,500 Climbing FlightAware ADS-B
07:02PM 38.8288 -109.2113 251° West 365 420 27,100 1,380 Climbing FlightAware ADS-B (KMTJ)
07:03PM 38.8043 -109.3024 251° West 374 430 28,000 1,320 Climbing FlightAware ADS-B (KMTJ)
07:03PM 38.7871 -109.3659 251° West 377 434 28,700 1,320 Climbing FlightAware ADS-B (KMTJ)
07:04PM 38.7641 -109.4507 251° West 380 437 29,600 1,260 Climbing FlightAware ADS-B (KMTJ)
07:04PM 38.7457 -109.5184 251° West 378 435 30,200 1,500 Climbing FlightAware ADS-B (KMTJ)
07:05PM 38.7289 -109.5800 251° West 373 429 31,100 1,680 Climbing FlightAware ADS-B (KMTJ)
07:05PM 38.7119 -109.6421 251° West 367 422 31,900 1,560 Climbing FlightAware ADS-B (KMTJ)
07:06PM 38.6951 -109.7034 251° West 362 417 32,700 1,680 Climbing FlightAware ADS-B (KMTJ)
07:06PM 38.6801 -109.7582 251° West 357 411 33,600 1,680 Climbing FlightAware ADS-B (KMTJ)
07:07PM 38.6623 -109.8230 251° West 353 406 34,400 1,560 Climbing FlightAware ADS-B (KMTJ)
07:07PM 38.6468 -109.8791 251° West 344 396 35,200 1,620 Climbing FlightAware ADS-B (KMTJ)
07:08PM 38.6302 -109.9392 251° West 341 392 36,100 1,680 Climbing FlightAware ADS-B (KMTJ)
07:08PM 38.6112 -109.9932 239° Southwest 339 390 36,900 900 Climbing FlightAware ADS-B (KMTJ)
07:09PM 38.5838 -110.0440 236° Southwest 355 409 37,000 60 Climbing FlightAware ADS-B (KMTJ)
07:09PM 38.5563 -110.0954 236° Southwest 365 420 37,000  Level FlightAware ADS-B (KMTJ)
07:10PM 38.5264 -110.1515 236° Southwest 374 430 37,000  Level FlightAware ADS-B (KMTJ)
07:10PM 38.4868 -110.2252 236° Southwest 388 447 37,000  Level FlightAware ADS-B (KMTJ)
07:11PM 38.4563 -110.2817 236° Southwest 389 448 37,000  Level FlightAware ADS-B (KMTJ)
07:11PM 38.4272 -110.3358 235° Southwest 386 444 37,000  Level FlightAware ADS-B (KMTJ)
07:12PM 38.3955 -110.3943 236° Southwest 388 447 37,000  Level FlightAware ADS-B (KMTJ)
07:13PM 38.3552 -110.4688 235° Southwest 386 444 37,000  Level FlightAware ADS-B (KMTJ)
07:13PM 38.3240 -110.5265 236° Southwest 387 445 37,000 240 Level FlightAware ADS-B (KMTJ)
07:14PM 38.2836 -110.6007 235° Southwest 380 437 37,300 660 Climbing FlightAware ADS-B (KMTJ)
07:14PM 38.2452 -110.6712 235° Southwest 375 432 37,900 600 Climbing FlightAware ADS-B (KMTJ)
07:15PM 38.2142 -110.7281 235° Southwest 381 438 38,000 60 Climbing FlightAware ADS-B (KMTJ)
07:15PM 38.1843 -110.7829 235° Southwest 390 449 38,000  Level FlightAware ADS-B (KMTJ)
07:16PM 38.1533 -110.8395 235° Southwest 391 450 38,000  Level FlightAware ADS-B (KMTJ)
07:16PM 38.1214 -110.8976 235° Southwest 392 451 38,000  Level FlightAware ADS-B (KMTJ)
07:17PM 38.0812 -110.9709 235° Southwest 389 448 38,000  Level FlightAware ADS-B (KMTJ)
07:18PM 38.0552 -111.0181 235° Southwest 386 444 38,000  Level FlightAware ADS-B (KMTJ)
07:18PM 38.0183 -111.0849 235° Southwest 383 441 38,000  Level FlightAware ADS-B (KMTJ)
07:19PM 37.9871 -111.1411 235° Southwest 381 438 38,000  Level FlightAware ADS-B (KMTJ)
07:19PM 37.9466 -111.2144 235° Southwest 378 435 38,000  Level FlightAware ADS-B (KMTJ)
07:20PM 37.9243 -111.2546 235° Southwest 380 437 38,000  Level FlightAware ADS-B (KMTJ)
07:21PM 37.8249 -111.4332 235° Southwest 379 436 38,000  Level FlightAware ADS-B
07:22PM 37.7946 -111.4874 235° Southwest 379 436 38,000  Level FlightAware ADS-B (KMTJ)
07:23PM 37.6979 -111.6600 235° Southwest 377 434 38,000  Level FlightAware ADS-B
07:24PM 37.6698 -111.7100 235° Southwest 376 433 38,000  Level FlightAware ADS-B (KMTJ)
07:24PM 37.6363 -111.7693 235° Southwest 373 429 38,000  Level FlightAware ADS-B
07:25PM 37.5710 -111.8851 235° Southwest 371 427 38,000  Level FlightAware ADS-B
07:27PM 37.5081 -111.9959 235° Southwest 369 425 38,000  Level FlightAware ADS-B
07:28PM 37.4453 -112.1064 235° Southwest 369 425 38,000  Level FlightAware ADS-B
07:29PM 37.3823 -112.2168 234° Southwest 372 428 38,000  Level FlightAware ADS-B
07:30PM 37.3192 -112.3270 234° Southwest 373 429 38,000  Level FlightAware ADS-B
07:32PM 37.1925 -112.5474 234° Southwest 374 430 38,000  Level FlightAware ADS-B
07:33PM 37.1311 -112.6534 234° Southwest 372 428 38,000  Level FlightAware ADS-B
07:34PM 37.0669 -112.7643 234° Southwest 370 426 38,000  Level FlightAware ADS-B
07:35PM 37.0042 -112.8720 234° Southwest 372 428 38,000  Level FlightAware ADS-B
07:37PM 36.9026 -113.0459 234° Southwest 371 427 38,000  Level FlightAware ADS-B
07:37PM 36.8621 -113.1150 234° Southwest 373 429 38,000  Level FlightAware ADS-B
07:38PM 36.8288 -113.1717 234° Southwest 373 429 38,000  Level FlightAware ADS-B
07:38PM 36.7876 -113.2416 234° Southwest 373 429 38,000  Level FlightAware ADS-B
07:39PM 36.7575 -113.2926 234° Southwest 373 429 38,000  Level FlightAware ADS-B
07:40PM 36.7066 -113.3788 234° Southwest 375 432 38,000  Level FlightAware ADS-B
07:41PM 36.6545 -113.4668 234° Southwest 378 435 38,000  Level FlightAware ADS-B
07:43PM 36.5171 -113.6976 234° Southwest 378 435 38,000  Level FlightAware ADS-B
07:45PM 36.3667 -113.9484 233° Southwest 369 425 38,000 -120 Level FlightAware ADS-B
07:48PM 36.1746 -114.2663 233° Southwest 379 436 37,400 -360 Descending FlightAware ADS-B
07:49PM 36.1238 -114.3499 233° Southwest 381 438 36,600 -960 Descending FlightAware ADS-B
07:50PM 36.0508 -114.4681 233° Southwest 377 434 35,500 -960 Descending Los Angeles Center
07:51PM 35.9906 -114.5678 233° Southwest 369 425 34,500 -780 Descending Los Angeles Center
07:52PM 35.9297 -114.6650 232° Southwest 361 415 34,000 -240 Descending Los Angeles Center
07:53PM 35.8722 -114.7606 233° Southwest 351 404 34,000  Level Los Angeles Center
07:55PM 35.7986 -114.8792 233° Southwest 354 407 34,000  Level Los Angeles Center
07:56PM 35.7364 -114.9794 233° Southwest 365 420 34,000  Level Los Angeles Center
07:57PM 35.6739 -115.0808 233° Southwest 367 422 34,000  Level Los Angeles Center
07:58PM 35.6117 -115.1797 232° Southwest 367 422 34,000  Level Los Angeles Center
07:59PM 35.5486 -115.2822 233° Southwest 368 423 34,000  Level Los Angeles Center
08:00PM 35.4850 -115.3825 232° Southwest 368 423 34,000 -240 Level Los Angeles Center
08:01PM 35.4217 -115.4822 232° Southwest 369 425 33,600 -780 Descending Los Angeles Center
08:02PM 35.3553 -115.5900 233° Southwest 382 440 32,500 -1,140 Descending Los Angeles Center
08:03PM 35.2736 -115.7203 233° Southwest 397 457 31,300 -1,080 Descending Los Angeles Center
08:04PM 35.2047 -115.8269 232° Southwest 399 459 30,300 -960 Descending Los Angeles Center
08:05PM 35.1364 -115.9364 233° Southwest 400 460 29,300 -1,020 Descending Los Angeles Center
08:06PM 35.0664 -116.0458 232° Southwest 407 468 28,200 -1,260 Descending Los Angeles Center
08:11PM 34.7753 -116.6874 263° West 388 447 21,600 -1,200 Descending FlightAware ADS-B
08:13PM 34.7584 -116.8565 263° West 387 445 20,300 -840 Descending FlightAware ADS-B
08:13PM 34.7505 -116.9352 263° West 387 445 20,000 -180 Descending FlightAware ADS-B
08:15PM 34.7277 -117.1586 263° West 379 436 20,000 -420 Level FlightAware ADS-B
08:16PM 34.7181 -117.2520 263° West 388 447 19,000 -1,500 Descending FlightAware ADS-B
08:17PM 34.6955 -117.4690 263° West 380 437 16,500 -1,380 Descending FlightAware ADS-B
08:18PM 34.6850 -117.5686 263° West 376 433 15,600 -1,140 Descending FlightAware ADS-B
08:19PM 34.6764 -117.6495 262° West 379 436 14,900 -1,140 Descending FlightAware ADS-B
08:19PM 34.6680 -117.6877 251° West 378 435 14,500 -1,020 Descending FlightAware ADS-B
08:20PM 34.6448 -117.7721 252° West 369 425 13,900 -960 Descending FlightAware ADS-B
08:20PM 34.6255 -117.8439 252° West 366 421 13,300 -1,140 Descending FlightAware ADS-B
08:21PM 34.6011 -117.9340 252° West 368 423 12,400 -960 Descending FlightAware ADS-B
08:22PM 34.5790 -118.0150 252° West 362 417 11,900 -1,320 Descending FlightAware ADS-B
08:22PM 34.5595 -118.0862 252° West 328 377 10,700 -1,800 Descending FlightAware ADS-B
08:23PM 34.5361 -118.1720 252° West 285 328 9,100 -1,620 Descending FlightAware ADS-B
08:24PM 34.5214 -118.2253 252° West 282 325 8,300 -1,380 Descending FlightAware ADS-B
08:24PM 34.5102 -118.2567 235° Southwest 280 322 7,900 -720 Descending FlightAware ADS-B
08:25PM 34.4953 -118.2714 215° Southwest 280 322 7,900  Level FlightAware ADS-B
08:25PM 34.4636 -118.2810 178° South 287 330 7,900  Level FlightAware ADS-B
08:25PM 34.4369 -118.2802 180° South 286 329 7,900  Level FlightAware ADS-B
08:26PM 34.4186 -118.2800 179° South 285 328 7,900 -600 Level FlightAware ADS-B
08:26PM 34.3542 -118.2779 178° South 270 311 7,300 -840 Descending FlightAware ADS-B
08:27PM 34.3374 -118.2772 178° South 252 290 7,000 -600 Descending FlightAware ADS-B
08:27PM 34.3076 -118.2759 178° South 235 270 6,900 -180 Descending FlightAware ADS-B
08:27PM 34.2861 -118.2751 178° South 234 269 6,900  Level FlightAware ADS-B
08:28PM 34.2452 -118.2734 178° South 199 229 6,900  Level FlightAware ADS-B
08:28PM 34.2270 -118.2726 178° South 191 220 6,900 -240 Level FlightAware ADS-B
08:29PM 34.1913 -118.2711 178° South 185 213 6,700 -720 Descending FlightAware ADS-B
08:29PM 34.1739 -118.2703 178° South 187 215 6,200 -1,380 Descending FlightAware ADS-B
08:30PM 34.1597 -118.2718 201° Southwest 182 209 5,900 -1,200 Descending FlightAware ADS-B
08:30PM 34.1413 -118.2891 229° Southwest 162 186 5,300 -1,440 Descending FlightAware ADS-B
08:30PM 34.1310 -118.3018 225° Southwest 156 180 4,700 -1,740 Descending FlightAware ADS-B
08:31PM 34.1226 -118.3123 227° Southwest 151 174 4,200 -1,680 Descending FlightAware ADS-B
08:31PM 34.1102 -118.3285 227° Southwest 139 160 3,500 -1,500 Descending FlightAware ADS-B
08:32PM 34.0954 -118.3476 227° Southwest 136 157 2,700 -1,020 Descending FlightAware ADS-B
08:32PM 34.0864 -118.3592 227° Southwest 136 157 2,500 -720 Descending FlightAware ADS-B
08:33PM 34.0695 -118.3808 227° Southwest 129 148 2,000 -900 Descending FlightAware ADS-B
08:33PM 34.0593 -118.3939 227° Southwest 125 144 1,600 -1,080 Descending FlightAware ADS-B
08:34PM 34.0516 -118.4037 227° Southwest 119 137 1,200 -840 Descending FlightAware ADS-B
08:34PM 34.0382 -118.4250 222° Southwest 111 128 800 -600 Descending FlightAware ADS-B
08:35PM 34.0286 -118.4378 222° Southwest 122 140 500 -360 Descending Los Angeles Center
08:36PM 34.0242 -118.4486 244° Southwest 99 114 300 -240 Descending Los Angeles Center
08:38PM 34.0158 -118.4513 244° Southwest  Level Estimated